Time;durP1;ratioP1;P1;durP2;ratioP2;P2;SDS_P1;SDS_P2;PMS_P1;PMS_P2;Temp;Humidity;BMP_temperature;BMP_pressure;BME280_temperature;BME280_humidity;BME280_pressure;Samples;Min_cycle;Max_cycle;Signal;HPM_P1;HPM_P2
2021/10/22 00:02:23;;;;;;;24.73;5.40;;;;;;;;;;4898751;29;20114;-78
2021/10/22 00:04:49;;;;;;;22.05;4.55;;;;;;;;;;4897104;28;20542;-78
2021/10/22 00:07:16;;;;;;;23.55;4.75;;;;;;;;;;4896809;28;20036;-80
2021/10/22 00:09:44;;;;;;;27.35;5.45;;;;;;;;;;4896388;29;20051;-78
2021/10/22 00:12:11;;;;;;;23.02;4.82;;;;;;;;;;4898291;28;20032;-78
2021/10/22 00:14:39;;;;;;;19.92;4.10;;;;;;;;;;4897913;29;20031;-78
2021/10/22 00:17:07;;;;;;;23.88;4.55;;;;;;;;;;4900287;28;20086;-78
2021/10/22 00:19:35;;;;;;;19.63;4.10;;;;;;;;;;4893332;29;20047;-79
2021/10/22 00:22:03;;;;;;;21.05;4.47;;;;;;;;;;4892652;28;20096;-78
2021/10/22 00:24:33;;;;;;;20.25;4.82;;;;;;;;;;4894664;29;20389;-79
2021/10/22 00:27:01;;;;;;;24.73;4.40;;;;;;;;;;4897156;28;20038;-78
2021/10/22 00:29:27;;;;;;;23.08;4.93;;;;;;;;;;4898637;29;20035;-78
2021/10/22 00:31:53;;;;;;;23.70;4.40;;;;;;;;;;4894617;29;20066;-78
2021/10/22 00:34:19;;;;;;;19.77;4.38;;;;;;;;;;4901364;29;20043;-79
2021/10/22 00:36:46;;;;;;;;;;;;;;;;;;4895508;28;20036;-80
2021/10/22 00:39:13;;;;;;;24.52;4.80;;;;;;;;;;4903795;29;19929;-80
2021/10/22 00:41:41;;;;;;;20.95;4.80;;;;;;;;;;4885449;28;20424;-79
2021/10/22 00:44:09;;;;;;;25.05;4.65;;;;;;;;;;4899675;29;20097;-79
2021/10/22 00:46:41;;;;;;;23.38;4.57;;;;;;;;;;4897565;28;20044;-79
2021/10/22 00:49:12;;;;;;;19.80;4.15;;;;;;;;;;4902736;29;20050;-79
2021/10/22 00:51:39;;;;;;;24.20;4.63;;;;;;;;;;4893978;29;20059;-79
2021/10/22 00:54:06;;;;;;;26.90;4.47;;;;;;;;;;4908591;29;20040;-80
2021/10/22 00:56:34;;;;;;;21.27;4.05;;;;;;;;;;4867822;29;20050;-79
2021/10/22 00:59:05;;;;;;;26.50;5.05;;;;;;;;;;4900382;29;20443;-79
2021/10/22 01:01:56;;;;;;;28.98;4.97;;;;;;;;;;4904527;28;20050;-79
2021/10/22 01:33:07;;;;;;;23.55;3.65;;;;;;;;;;4901368;28;20432;-78
2021/10/22 01:35:34;;;;;;;24.30;3.97;;;;;;;;;;4896848;29;20039;-79
2021/10/22 01:38:03;;;;;;;23.90;3.90;;;;;;;;;;4884673;29;20046;-78
2021/10/22 01:40:29;;;;;;;23.92;3.90;;;;;;;;;;4884081;29;20039;-79
2021/10/22 01:42:57;;;;;;;21.83;3.92;;;;;;;;;;4904068;28;20153;-79
2021/10/22 01:45:23;;;;;;;19.92;4.07;;;;;;;;;;4906953;29;20830;-79
2021/10/22 01:47:50;;;;;;;22.63;4.32;;;;;;;;;;4896833;28;21132;-78
2021/10/22 01:50:18;;;;;;;19.98;4.13;;;;;;;;;;4901858;28;20035;-79
2021/10/22 01:52:46;;;;;;;24.17;3.97;;;;;;;;;;4898934;28;20023;-79
2021/10/22 01:55:12;;;;;;;19.35;3.50;;;;;;;;;;4899990;29;20468;-79
2021/10/22 01:57:39;;;;;;;19.83;3.75;;;;;;;;;;4899412;28;20038;-78
2021/10/22 02:00:06;;;;;;;16.23;3.05;;;;;;;;;;4902603;29;20041;-79
2021/10/22 02:02:34;;;;;;;22.75;3.90;;;;;;;;;;4897663;29;20039;-79
2021/10/22 02:05:00;;;;;;;21.70;3.67;;;;;;;;;;4901667;29;20174;-77
2021/10/22 02:07:31;;;;;;;18.35;3.13;;;;;;;;;;4904464;29;20330;-79
2021/10/22 02:09:57;;;;;;;19.13;4.00;;;;;;;;;;4905699;29;20043;-78
2021/10/22 02:12:24;;;;;;;18.52;3.72;;;;;;;;;;4903728;29;20031;-78
2021/10/22 02:14:51;;;;;;;25.13;4.13;;;;;;;;;;4896722;28;20027;-79
2021/10/22 02:17:19;;;;;;;27.77;3.85;;;;;;;;;;4903015;29;20111;-78
2021/10/22 02:19:46;;;;;;;17.05;3.45;;;;;;;;;;4898182;28;20052;-79
2021/10/22 02:22:12;;;;;;;24.08;3.75;;;;;;;;;;4905912;29;20036;-79
2021/10/22 02:24:39;;;;;;;21.45;3.60;;;;;;;;;;4900750;29;20024;-79
2021/10/22 02:27:08;;;;;;;19.77;3.45;;;;;;;;;;4909712;29;20111;-79
2021/10/22 02:29:36;;;;;;;20.20;3.35;;;;;;;;;;4902898;28;20027;-79
2021/10/22 02:32:03;;;;;;;18.48;3.47;;;;;;;;;;4905710;29;20487;-79
2021/10/22 02:34:30;;;;;;;22.48;3.97;;;;;;;;;;4906612;28;20032;-79
2021/10/22 02:36:58;;;;;;;17.83;3.30;;;;;;;;;;4902813;29;20039;-80
2021/10/22 02:39:32;;;;;;;16.98;3.22;;;;;;;;;;4909951;28;20032;-78
2021/10/22 02:42:00;;;;;;;17.45;3.20;;;;;;;;;;4908018;29;20059;-78
2021/10/22 02:44:28;;;;;;;18.75;3.25;;;;;;;;;;4892519;28;20132;-79
2021/10/22 02:46:57;;;;;;;16.77;3.70;;;;;;;;;;4913362;29;20081;-79
2021/10/22 02:49:24;;;;;;;18.40;3.17;;;;;;;;;;4909233;28;20027;-77
2021/10/22 02:51:52;;;;;;;16.77;3.40;;;;;;;;;;4906733;29;20036;-78
2021/10/22 02:54:22;;;;;;;19.50;3.13;;;;;;;;;;4914537;28;20074;-79
2021/10/22 02:56:50;;;;;;;20.33;3.25;;;;;;;;;;4899213;29;21710;-79
2021/10/22 02:59:18;;;;;;;18.60;3.05;;;;;;;;;;4907305;28;20393;-78
2021/10/22 03:01:45;;;;;;;16.58;2.97;;;;;;;;;;4899612;29;20179;-79
2021/10/22 03:04:12;;;;;;;18.35;2.92;;;;;;;;;;4905195;29;20800;-78
2021/10/22 03:06:39;;;;;;;15.18;2.70;;;;;;;;;;4906077;29;20087;-80
2021/10/22 03:09:08;;;;;;;16.67;3.08;;;;;;;;;;4901033;28;20574;-79
2021/10/22 03:11:37;;;;;;;17.85;3.22;;;;;;;;;;4884683;29;20661;-79
2021/10/22 03:14:04;;;;;;;17.98;3.22;;;;;;;;;;4905289;28;20159;-78
2021/10/22 03:16:32;;;;;;;18.25;3.28;;;;;;;;;;4899707;29;20078;-78
2021/10/22 03:18:58;;;;;;;15.63;3.15;;;;;;;;;;4904636;28;20419;-78
2021/10/22 03:21:25;;;;;;;15.45;2.92;;;;;;;;;;4904474;29;20050;-78
2021/10/22 03:23:55;;;;;;;;;;;;;;;;;;4899377;28;20035;-79
2021/10/22 03:26:22;;;;;;;15.75;2.88;;;;;;;;;;4910149;29;20043;-77
2021/10/22 03:28:50;;;;;;;20.77;3.47;;;;;;;;;;4894836;28;20099;-78
2021/10/22 03:31:18;;;;;;;17.15;2.78;;;;;;;;;;4904451;29;20073;-77
2021/10/22 03:33:46;;;;;;;16.50;3.25;;;;;;;;;;4899929;28;20031;-78
2021/10/22 03:36:14;;;;;;;18.17;3.13;;;;;;;;;;4889429;29;20040;-78
2021/10/22 03:38:41;;;;;;;17.80;2.90;;;;;;;;;;4901800;29;20031;-78
2021/10/22 03:41:08;;;;;;;19.10;4.03;;;;;;;;;;4900633;28;20036;-78
2021/10/22 03:43:38;;;;;;;12.98;2.30;;;;;;;;;;4898256;28;20210;-78
2021/10/22 03:46:07;;;;;;;17.23;3.10;;;;;;;;;;4903125;29;20433;-79
2021/10/22 03:48:33;;;;;;;15.00;3.10;;;;;;;;;;4885350;28;20662;-78
2021/10/22 03:51:01;;;;;;;17.40;3.25;;;;;;;;;;4902744;29;20058;-78
2021/10/22 03:53:28;;;;;;;14.75;2.70;;;;;;;;;;4885776;28;20242;-78
2021/10/22 03:55:56;;;;;;;16.02;3.03;;;;;;;;;;4882792;29;20031;-78
2021/10/22 03:58:23;;;;;;;22.20;3.05;;;;;;;;;;4903967;29;20829;-77
2021/10/22 04:00:50;;;;;;;15.38;2.97;;;;;;;;;;4899471;28;20895;-78
2021/10/22 04:03:16;;;;;;;18.73;2.83;;;;;;;;;;4900060;29;20514;-78
2021/10/22 04:05:44;;;;;;;;;;;;;;;;;;4899625;28;20147;-77
2021/10/22 04:08:12;;;;;;;15.50;2.60;;;;;;;;;;4905463;29;19919;-77
2021/10/22 04:10:41;;;;;;;15.63;2.83;;;;;;;;;;4898125;29;20020;-78
2021/10/22 04:13:10;;;;;;;17.00;2.80;;;;;;;;;;4900807;28;20028;-78
2021/10/22 04:15:40;;;;;;;16.75;2.70;;;;;;;;;;4895366;28;20032;-78
2021/10/22 04:18:09;;;;;;;13.73;2.50;;;;;;;;;;4886634;29;20442;-78
2021/10/22 04:20:37;;;;;;;17.08;2.88;;;;;;;;;;4900763;28;20044;-79
2021/10/22 04:23:04;;;;;;;16.02;3.05;;;;;;;;;;4901250;29;20038;-79
2021/10/22 04:25:31;;;;;;;14.82;2.30;;;;;;;;;;4894982;28;20562;-79
2021/10/22 04:28:00;;;;;;;17.10;2.80;;;;;;;;;;4905872;29;20039;-79
2021/10/22 04:30:27;;;;;;;15.50;2.75;;;;;;;;;;4900319;28;20040;-79
2021/10/22 04:32:55;;;;;;;16.90;3.30;;;;;;;;;;4901949;29;20027;-78
2021/10/22 04:35:23;;;;;;;18.73;3.28;;;;;;;;;;4900302;28;20032;-79
2021/10/22 04:40:39;;;;;;;;;;;;;;;;;;4881018;29;20044;-79
2021/10/22 04:43:10;;;;;;;16.40;3.08;;;;;;;;;;4880446;29;19927;-79
2021/10/22 04:45:39;;;;;;;20.58;3.72;;;;;;;;;;4861591;29;20095;-79
2021/10/22 04:48:06;;;;;;;19.55;3.42;;;;;;;;;;4870327;29;20602;-78
2021/10/22 04:50:33;;;;;;;19.33;3.50;;;;;;;;;;4862693;28;20036;-79
2021/10/22 04:53:02;;;;;;;18.60;3.15;;;;;;;;;;4880030;29;20043;-79
2021/10/22 04:55:29;;;;;;;16.27;3.13;;;;;;;;;;4884010;29;20139;-81
2021/10/22 04:57:55;;;;;;;20.13;3.15;;;;;;;;;;4865864;29;20160;-80
2021/10/22 05:00:22;;;;;;;;;;;;;;;;;;4872260;29;20039;-78
2021/10/22 05:02:49;;;;;;;16.60;2.90;;;;;;;;;;4863465;29;19923;-79
2021/10/22 05:05:17;;;;;;;17.80;2.92;;;;;;;;;;4865091;29;20035;-79
2021/10/22 05:07:45;;;;;;;18.05;3.30;;;;;;;;;;4866477;29;20276;-82
2021/10/22 05:10:13;;;;;;;18.42;2.70;;;;;;;;;;4863659;29;20039;-79
2021/10/22 05:12:40;;;;;;;16.08;2.97;;;;;;;;;;4877860;29;20043;-78
2021/10/22 05:15:07;;;;;;;15.07;3.00;;;;;;;;;;4868253;28;20024;-79
2021/10/22 05:17:34;;;;;;;16.20;2.50;;;;;;;;;;4888117;29;20058;-80
2021/10/22 05:20:02;;;;;;;15.10;3.00;;;;;;;;;;4915942;28;20039;-82
2021/10/22 05:22:30;;;;;;;13.82;2.53;;;;;;;;;;4910522;29;20058;-84
2021/10/22 05:24:57;;;;;;;14.95;2.45;;;;;;;;;;4908593;28;20396;-84
2021/10/22 05:27:24;;;;;;;15.85;2.83;;;;;;;;;;4903595;29;20055;-84
2021/10/22 05:29:52;;;;;;;16.35;3.08;;;;;;;;;;4905268;28;20333;-84
2021/10/22 05:32:19;;;;;;;14.93;2.70;;;;;;;;;;4914320;29;20140;-83
2021/10/22 05:34:47;;;;;;;14.00;2.60;;;;;;;;;;4907390;28;20028;-83
2021/10/22 05:37:15;;;;;;;16.58;2.40;;;;;;;;;;4908075;29;20075;-84
2021/10/22 05:39:42;;;;;;;14.88;2.95;;;;;;;;;;4911123;28;20028;-83
2021/10/22 05:42:10;;;;;;;12.23;2.40;;;;;;;;;;4900331;29;20564;-84
2021/10/22 05:44:38;;;;;;;13.00;2.55;;;;;;;;;;4866520;29;20120;-83
2021/10/22 05:47:05;;;;;;;13.40;2.55;;;;;;;;;;4873608;29;20035;-83
2021/10/22 05:49:33;;;;;;;14.30;2.83;;;;;;;;;;4869442;28;20032;-83
2021/10/22 05:52:01;;;;;;;13.60;2.38;;;;;;;;;;4874529;29;20035;-83
2021/10/22 05:54:29;;;;;;;15.48;2.88;;;;;;;;;;4871475;29;20029;-83
2021/10/22 05:56:58;;;;;;;16.65;2.70;;;;;;;;;;4872413;29;20043;-84
2021/10/22 05:59:25;;;;;;;14.70;2.40;;;;;;;;;;4882901;29;20040;-84
2021/10/22 06:01:52;;;;;;;14.95;2.47;;;;;;;;;;4871855;29;20806;-84
2021/10/22 06:04:19;;;;;;;13.95;2.30;;;;;;;;;;4876678;29;20032;-84
2021/10/22 06:06:46;;;;;;;13.77;2.55;;;;;;;;;;4875325;29;20036;-84
2021/10/22 06:09:14;;;;;;;16.20;2.35;;;;;;;;;;4892438;29;20040;-84
2021/10/22 06:11:42;;;;;;;16.73;2.40;;;;;;;;;;4873492;29;20103;-85
2021/10/22 06:14:09;;;;;;;12.85;2.20;;;;;;;;;;4876343;29;20977;-83
2021/10/22 06:16:36;;;;;;;15.60;2.45;;;;;;;;;;4870242;29;20028;-85
2021/10/22 06:19:04;;;;;;;13.63;2.40;;;;;;;;;;4874645;29;20388;-84
2021/10/22 06:22:05;;;;;;;14.82;2.30;;;;;;;;;;4876632;29;20044;-84
2021/10/22 06:24:33;;;;;;;11.40;1.92;;;;;;;;;;4874058;29;23869;-85
2021/10/22 06:27:01;;;;;;;15.15;1.95;;;;;;;;;;4861193;29;20048;-84
2021/10/22 06:29:29;;;;;;;45.10;5.43;;;;;;;;;;4877994;29;20043;-84
2021/10/22 06:31:56;;;;;;;24.98;3.95;;;;;;;;;;4876334;29;20108;-84
2021/10/22 06:34:26;;;;;;;12.27;2.25;;;;;;;;;;4873712;29;20043;-85
2021/10/22 06:36:54;;;;;;;12.18;2.47;;;;;;;;;;4895304;29;20056;-86
2021/10/22 06:39:21;;;;;;;12.07;2.28;;;;;;;;;;4878904;29;20116;-85
2021/10/22 06:41:49;;;;;;;14.00;2.42;;;;;;;;;;4880866;29;20126;-85
2021/10/22 06:44:18;;;;;;;13.10;2.45;;;;;;;;;;4920902;29;20146;-84
2021/10/22 06:46:46;;;;;;;10.98;2.70;;;;;;;;;;4913224;29;20043;-83
2021/10/22 06:49:15;;;;;;;14.20;2.53;;;;;;;;;;4918257;29;20031;-85
2021/10/22 06:51:42;;;;;;;13.77;2.75;;;;;;;;;;4909434;28;20055;-84
2021/10/22 06:54:09;;;;;;;11.45;2.25;;;;;;;;;;4916951;29;20380;-82
2021/10/22 06:56:36;;;;;;;15.05;2.45;;;;;;;;;;4906803;28;20030;-83
2021/10/22 06:59:03;;;;;;;10.90;2.38;;;;;;;;;;4908161;29;20031;-84
2021/10/22 07:01:31;;;;;;;12.10;2.40;;;;;;;;;;4908848;28;20031;-83
2021/10/22 07:03:58;;;;;;;16.77;2.67;;;;;;;;;;4913686;28;20035;-84
2021/10/22 07:09:12;;;;;;;11.52;3.08;;;;;;;;;;4916681;29;20080;-85
2021/10/22 07:11:40;;;;;;;15.90;3.05;;;;;;;;;;4911502;28;20043;-84
2021/10/22 07:14:08;;;;;;;16.27;3.88;;;;;;;;;;4916024;28;20090;-84
2021/10/22 07:16:38;;;;;;;16.92;4.53;;;;;;;;;;4907583;28;20024;-85
2021/10/22 07:19:07;;;;;;;17.27;3.97;;;;;;;;;;4911455;29;20035;-85
2021/10/22 07:21:38;;;;;;;19.42;4.30;;;;;;;;;;4912944;28;20139;-85
2021/10/22 07:24:12;;;;;;;16.98;4.18;;;;;;;;;;4916824;29;20042;-86
2021/10/22 07:26:41;;;;;;;19.95;4.07;;;;;;;;;;4907943;28;20075;-85
2021/10/22 07:29:08;;;;;;;14.05;3.15;;;;;;;;;;4908306;29;20039;-84
2021/10/22 07:31:36;;;;;;;15.65;2.92;;;;;;;;;;4906349;28;20028;-85
2021/10/22 07:34:03;;;;;;;15.07;3.00;;;;;;;;;;4913530;29;20699;-86
2021/10/22 07:36:31;;;;;;;13.63;3.75;;;;;;;;;;4895485;28;20040;-85
2021/10/22 07:38:58;;;;;;;22.48;5.57;;;;;;;;;;4913147;28;20044;-85
2021/10/22 07:41:26;;;;;;;20.25;6.28;;;;;;;;;;4915317;29;20031;-85
2021/10/22 07:43:53;;;;;;;21.08;7.05;;;;;;;;;;4910098;29;20051;-85
2021/10/22 07:46:20;;;;;;;19.13;6.38;;;;;;;;;;4925298;28;20028;-85
2021/10/22 07:48:47;;;;;;;20.15;5.30;;;;;;;;;;4911450;29;20042;-86
2021/10/22 07:51:15;;;;;;;18.15;5.03;;;;;;;;;;4893317;28;20041;-86
2021/10/22 07:53:42;;;;;;;15.38;4.57;;;;;;;;;;4888572;29;21546;-85
2021/10/22 07:56:10;;;;;;;15.60;3.40;;;;;;;;;;4908110;28;20025;-86
2021/10/22 07:58:37;;;;;;;16.55;3.30;;;;;;;;;;4907545;29;20441;-85
2021/10/22 08:01:05;;;;;;;14.55;3.00;;;;;;;;;;4890072;28;20028;-84
2021/10/22 08:03:33;;;;;;;16.85;2.83;;;;;;;;;;4908227;29;20078;-85
2021/10/22 08:06:00;;;;;;;14.23;2.90;;;;;;;;;;4898070;29;20039;-83
2021/10/22 08:08:27;;;;;;;14.15;2.38;;;;;;;;;;4913096;29;20990;-84
2021/10/22 08:10:55;;;;;;;14.45;2.15;;;;;;;;;;4896232;29;20047;-84
2021/10/22 08:13:22;;;;;;;16.13;2.75;;;;;;;;;;4894429;29;20028;-85
2021/10/22 08:15:49;;;;;;;17.27;3.05;;;;;;;;;;4890430;29;21729;-84
2021/10/22 08:18:16;;;;;;;16.95;2.85;;;;;;;;;;4899792;29;20119;-85
2021/10/22 08:20:55;;;;;;;16.63;2.75;;;;;;;;;;4898292;29;20036;-84
2021/10/22 08:23:27;;;;;;;12.40;2.25;;;;;;;;;;4897608;29;20032;-86
2021/10/22 08:25:55;;;;;;;16.20;2.90;;;;;;;;;;4894933;29;20036;-85
2021/10/22 08:28:21;;;;;;;;;;;;;;;;;;4912939;29;20038;-84
2021/10/22 08:30:55;;;;;;;16.42;3.45;;;;;;;;;;4893135;29;19945;-85
2021/10/22 08:33:24;;;;;;;19.23;4.10;;;;;;;;;;4902895;29;20040;-84
2021/10/22 08:35:52;;;;;;;17.17;4.43;;;;;;;;;;4914642;29;20118;-84
2021/10/22 08:38:19;;;;;;;18.15;5.25;;;;;;;;;;4897784;29;20040;-84
2021/10/22 08:40:47;;;;;;;18.15;5.38;;;;;;;;;;4913787;29;20368;-85
2021/10/22 08:43:14;;;;;;;16.63;5.03;;;;;;;;;;4905495;28;20126;-85
2021/10/22 08:45:43;;;;;;;21.73;5.57;;;;;;;;;;4924857;28;20043;-86
2021/10/22 08:48:11;;;;;;;23.92;6.10;;;;;;;;;;4932484;28;20084;-85
2021/10/22 08:50:38;;;;;;;18.52;4.88;;;;;;;;;;4915042;28;20027;-84
2021/10/22 08:53:05;;;;;;;19.95;4.47;;;;;;;;;;4919800;28;20039;-85
2021/10/22 08:55:33;;;;;;;16.27;4.22;;;;;;;;;;4898890;29;20025;-84
2021/10/22 08:58:01;;;;;;;15.82;4.93;;;;;;;;;;4900514;29;20417;-84
2021/10/22 09:00:29;;;;;;;23.65;6.75;;;;;;;;;;4915924;29;20357;-84
2021/10/22 09:03:18;;;;;;;20.58;6.80;;;;;;;;;;4908367;29;20059;-85
2021/10/22 09:06:07;;;;;;;17.98;4.55;;;;;;;;;;4899302;29;20064;-84
2021/10/22 09:08:36;;;;;;;13.88;4.00;;;;;;;;;;4893061;29;20071;-84
2021/10/22 09:11:04;;;;;;;17.17;4.40;;;;;;;;;;4891884;29;20032;-85
2021/10/22 09:13:35;;;;;;;17.60;4.97;;;;;;;;;;4909081;29;20024;-84
2021/10/22 09:16:23;;;;;;;16.60;6.47;;;;;;;;;;4893537;29;20128;-83
2021/10/22 09:18:54;;;;;;;28.65;6.65;;;;;;;;;;4910669;29;20123;-85
2021/10/22 09:21:29;;;;;;;36.08;6.93;;;;;;;;;;4896265;28;20040;-84
2021/10/22 09:24:15;;;;;;;14.43;3.00;;;;;;;;;;4907758;29;20383;-87
2021/10/22 09:26:42;;;;;;;27.25;4.13;;;;;;;;;;4893365;29;20111;-83
2021/10/22 09:29:17;;;;;;;18.77;3.40;;;;;;;;;;4907589;29;20036;-84
2021/10/22 09:31:47;;;;;;;15.23;2.70;;;;;;;;;;4900439;28;20043;-83
2021/10/22 09:34:36;;;;;;;14.50;3.00;;;;;;;;;;4895100;29;20035;-85
2021/10/22 09:37:05;;;;;;;19.33;3.60;;;;;;;;;;4910359;28;20044;-83
2021/10/22 09:39:37;;;;;;;16.90;3.55;;;;;;;;;;4895320;29;20157;-84
2021/10/22 09:42:13;;;;;;;17.33;3.20;;;;;;;;;;4908462;29;20041;-85
2021/10/22 09:44:44;;;;;;;14.00;2.85;;;;;;;;;;4913446;28;20519;-86
2021/10/22 09:47:21;;;;;;;18.13;2.88;;;;;;;;;;4916526;28;20036;-84
2021/10/22 09:49:53;;;;;;;13.45;2.50;;;;;;;;;;4914416;29;20735;-84
2021/10/22 09:52:21;;;;;;;16.25;2.90;;;;;;;;;;4921034;28;20035;-85
2021/10/22 09:55:04;;;;;;;14.95;3.58;;;;;;;;;;4914984;29;20036;-84
2021/10/22 09:57:31;;;;;;;17.58;3.97;;;;;;;;;;4915452;28;20024;-84
2021/10/22 10:00:21;;;;;;;15.50;3.40;;;;;;;;;;4923823;29;20127;-84
2021/10/22 10:02:48;;;;;;;14.75;3.05;;;;;;;;;;4919297;28;20098;-83
2021/10/22 10:05:16;;;;;;;11.77;2.33;;;;;;;;;;4917266;28;20035;-84
2021/10/22 10:07:44;;;;;;;16.58;2.42;;;;;;;;;;4914439;28;20039;-83
2021/10/22 10:10:13;;;;;;;12.57;2.30;;;;;;;;;;4913326;29;20058;-84
2021/10/22 10:12:40;;;;;;;12.60;2.30;;;;;;;;;;4913186;28;20039;-84
2021/10/22 10:15:09;;;;;;;12.98;2.55;;;;;;;;;;4918470;29;20377;-85
2021/10/22 10:17:38;;;;;;;13.77;2.17;;;;;;;;;;4910085;28;20052;-85
2021/10/22 10:20:07;;;;;;;14.40;2.45;;;;;;;;;;4896741;29;20574;-84
2021/10/22 10:22:35;;;;;;;11.93;2.10;;;;;;;;;;4897356;29;20104;-84
2021/10/22 10:25:06;;;;;;;10.75;2.15;;;;;;;;;;4903293;29;20122;-83
2021/10/22 10:27:52;;;;;;;14.00;2.30;;;;;;;;;;4915554;28;20050;-84
2021/10/22 10:30:41;;;;;;;12.85;2.10;;;;;;;;;;4914270;29;20027;-85
2021/10/22 10:33:10;;;;;;;11.07;1.92;;;;;;;;;;4914294;29;20122;-84
2021/10/22 10:35:39;;;;;;;14.50;2.30;;;;;;;;;;4915568;29;20023;-85
2021/10/22 10:38:12;;;;;;;12.15;1.88;;;;;;;;;;4916382;28;20035;-83
2021/10/22 10:40:39;;;;;;;13.20;2.28;;;;;;;;;;4914392;29;20035;-85
2021/10/22 10:43:27;;;;;;;12.00;2.30;;;;;;;;;;4918324;29;20059;-84
2021/10/22 10:45:54;;;;;;;11.77;1.88;;;;;;;;;;4893998;29;20038;-85
2021/10/22 10:48:22;;;;;;;10.35;1.90;;;;;;;;;;4912030;28;20044;-87
2021/10/22 10:50:54;;;;;;;12.73;2.08;;;;;;;;;;4899637;29;20729;-84
2021/10/22 10:53:38;;;;;;;12.63;2.23;;;;;;;;;;4896704;28;20030;-86
2021/10/22 10:56:06;;;;;;;13.52;2.17;;;;;;;;;;4900135;29;20119;-87
2021/10/22 10:58:44;;;;;;;10.68;1.90;;;;;;;;;;4895433;28;20092;-87
2021/10/22 11:01:24;;;;;;;13.30;2.00;;;;;;;;;;4896398;29;20123;-85
2021/10/22 11:03:52;;;;;;;13.23;1.95;;;;;;;;;;4910797;29;20027;-87
2021/10/22 11:06:47;;;;;;;16.05;2.22;;;;;;;;;;4914576;29;20036;-86
2021/10/22 11:09:43;;;;;;;10.85;2.00;;;;;;;;;;4894283;29;20059;-85
2021/10/22 11:12:10;;;;;;;11.65;1.90;;;;;;;;;;4910803;29;20043;-85
2021/10/22 11:14:44;;;;;;;10.60;1.85;;;;;;;;;;4907814;28;20024;-84
2021/10/22 11:17:14;;;;;;;14.95;2.25;;;;;;;;;;4912815;29;20056;-85
2021/10/22 11:19:45;;;;;;;10.25;1.95;;;;;;;;;;4901395;29;20028;-88
2021/10/22 11:22:13;;;;;;;12.85;1.90;;;;;;;;;;4916074;29;20032;-89
2021/10/22 11:24:41;;;;;;;12.30;2.28;;;;;;;;;;4883127;29;20380;-89
2021/10/22 11:27:11;;;;;;;12.70;2.35;;;;;;;;;;4924023;29;20044;-89
2021/10/22 11:29:43;;;;;;;12.48;2.50;;;;;;;;;;4926855;28;20032;-89
2021/10/22 11:32:15;;;;;;;11.00;3.05;;;;;;;;;;4920108;29;20036;-89
2021/10/22 11:34:47;;;;;;;13.50;3.03;;;;;;;;;;4899900;29;20135;-88
2021/10/22 11:37:17;;;;;;;13.57;3.03;;;;;;;;;;4902494;29;20039;-88
2021/10/22 11:39:50;;;;;;;18.50;3.03;;;;;;;;;;4912873;28;20036;-88
2021/10/22 11:42:32;;;;;;;14.75;2.58;;;;;;;;;;4900395;29;20044;-90
2021/10/22 11:45:08;;;;;;;13.48;2.55;;;;;;;;;;4923674;28;20081;-90
2021/10/22 11:47:36;;;;;;;13.57;3.38;;;;;;;;;;4922866;29;20150;-92
2021/10/22 11:50:30;;;;;;;16.25;3.00;;;;;;;;;;4923990;29;20122;-90
2021/10/22 11:53:05;;;;;;;12.10;2.45;;;;;;;;;;4922547;29;20407;-91
2021/10/22 11:55:32;;;;;;;11.45;2.38;;;;;;;;;;4922235;28;20087;-90
2021/10/22 11:58:21;;;;;;;12.23;2.40;;;;;;;;;;4923261;28;20126;-90
2021/10/22 12:00:56;;;;;;;12.38;2.10;;;;;;;;;;4923253;28;20078;-90
2021/10/22 12:03:48;;;;;;;12.52;2.22;;;;;;;;;;4924702;29;20023;-92
2021/10/22 12:06:15;;;;;;;11.65;2.40;;;;;;;;;;4923159;29;20036;-91
2021/10/22 12:08:41;;;;;;;;;;;;;;;;;;4921216;28;20039;-92
2021/10/22 12:11:08;;;;;;;11.48;2.40;;;;;;;;;;4920278;29;19914;-91
2021/10/22 12:13:38;;;;;;;14.18;2.63;;;;;;;;;;4915045;29;20099;-90
2021/10/22 12:16:29;;;;;;;10.75;2.22;;;;;;;;;;4925770;29;20039;-90
2021/10/22 12:18:59;;;;;;;13.75;2.28;;;;;;;;;;4930711;28;20037;-89
2021/10/22 12:21:27;;;;;;;14.45;2.30;;;;;;;;;;4939738;29;20099;-90
2021/10/22 12:24:01;;;;;;;11.20;2.20;;;;;;;;;;4928311;28;20027;-89
2021/10/22 12:26:29;;;;;;;11.50;2.28;;;;;;;;;;4926488;29;20039;-91
2021/10/22 12:28:58;;;;;;;15.07;2.15;;;;;;;;;;4922681;29;20043;-92
2021/10/22 12:31:30;;;;;;;16.65;2.60;;;;;;;;;;4926903;29;20025;-92
2021/10/22 12:34:25;;;;;;;14.75;2.33;;;;;;;;;;4911513;29;20040;-90
2021/10/22 12:37:18;;;;;;;12.20;1.98;;;;;;;;;;4923981;29;20035;-91
2021/10/22 12:39:51;;;;;;;10.55;2.03;;;;;;;;;;4930606;28;20043;-93
2021/10/22 12:42:27;;;;;;;16.48;2.60;;;;;;;;;;4921593;29;20724;-90
2021/10/22 12:45:12;;;;;;;14.38;2.42;;;;;;;;;;4919968;28;20040;-91
2021/10/22 12:47:40;;;;;;;11.32;2.17;;;;;;;;;;4917838;29;20027;-91
2021/10/22 12:50:07;;;;;;;13.52;2.50;;;;;;;;;;4921500;28;20036;-87
2021/10/22 12:52:36;;;;;;;15.90;2.75;;;;;;;;;;4921801;29;20058;-88
2021/10/22 12:55:03;;;;;;;11.20;2.50;;;;;;;;;;4926852;28;20032;-87
2021/10/22 12:57:31;;;;;;;15.25;2.42;;;;;;;;;;4928858;29;20047;-90
2021/10/22 13:00:18;;;;;;;12.50;2.40;;;;;;;;;;4936718;28;20038;-88
2021/10/22 13:02:46;;;;;;;16.38;2.60;;;;;;;;;;4932265;29;20042;-89
2021/10/22 13:05:18;;;;;;;15.90;3.15;;;;;;;;;;4931744;28;20012;-90
2021/10/22 13:08:24;;;;;;;14.88;2.78;;;;;;;;;;4913197;29;20036;-89
2021/10/22 13:11:22;;;;;;;12.77;2.30;;;;;;;;;;4933098;29;20027;-87
2021/10/22 13:21:57;;;;;;;13.02;2.35;;;;;;;;;;4925827;29;20054;-89
2021/10/22 13:24:24;;;;;;;12.90;2.28;;;;;;;;;;4919739;29;20158;-90
2021/10/22 13:26:51;;;;;;;14.18;2.90;;;;;;;;;;4923727;28;20028;-90
2021/10/22 13:29:19;;;;;;;15.93;3.58;;;;;;;;;;4929825;28;20469;-89
2021/10/22 13:31:49;;;;;;;18.88;5.65;;;;;;;;;;4922653;28;20036;-89
2021/10/22 13:34:17;;;;;;;18.52;5.93;;;;;;;;;;4919650;29;20107;-89
2021/10/22 13:36:46;;;;;;;19.73;7.72;;;;;;;;;;4922911;28;20028;-90
2021/10/22 13:39:13;;;;;;;22.73;8.43;;;;;;;;;;4924939;29;20071;-91
2021/10/22 13:41:41;;;;;;;21.38;8.95;;;;;;;;;;4919946;28;20046;-87
2021/10/22 13:44:07;;;;;;;21.60;6.45;;;;;;;;;;4881222;29;20056;-91
2021/10/22 13:46:35;;;;;;;18.20;5.35;;;;;;;;;;4879493;29;20029;-89
2021/10/22 13:49:02;;;;;;;12.95;4.10;;;;;;;;;;4880316;29;20040;-89
2021/10/22 13:51:29;;;;;;;17.77;4.07;;;;;;;;;;4882141;29;20420;-91
2021/10/22 13:53:57;;;;;;;15.57;4.43;;;;;;;;;;4886787;29;20120;-90
2021/10/22 13:56:24;;;;;;;13.55;3.90;;;;;;;;;;4883937;29;20512;-89
2021/10/22 13:58:50;;;;;;;19.10;5.78;;;;;;;;;;4880519;29;20033;-90
2021/10/22 14:01:19;;;;;;;20.30;5.55;;;;;;;;;;4897085;29;20441;-90
2021/10/22 14:03:46;;;;;;;18.42;6.13;;;;;;;;;;4882063;29;20071;-90
2021/10/22 14:06:14;;;;;;;17.63;4.97;;;;;;;;;;4899809;29;20036;-90
2021/10/22 14:08:42;;;;;;;14.40;4.00;;;;;;;;;;4884168;29;20120;-90
2021/10/22 14:11:15;;;;;;;16.70;3.78;;;;;;;;;;4888721;29;20040;-90
2021/10/22 14:14:12;;;;;;;18.13;3.53;;;;;;;;;;4892949;29;20040;-87
2021/10/22 14:17:06;;;;;;;13.48;2.55;;;;;;;;;;4899868;29;20399;-86
2021/10/22 14:30:30;;;;;;;16.35;2.85;;;;;;;;;;4906740;29;20360;-87
2021/10/22 14:32:58;;;;;;;17.75;3.38;;;;;;;;;;4900202;29;20040;-87
2021/10/22 14:35:27;;;;;;;14.98;3.35;;;;;;;;;;4883584;29;20033;-87
2021/10/22 14:37:54;;;;;;;15.68;3.75;;;;;;;;;;4898728;29;20123;-85
2021/10/22 14:40:21;;;;;;;15.18;3.42;;;;;;;;;;4888474;29;20064;-87
2021/10/22 14:42:49;;;;;;;13.55;2.88;;;;;;;;;;4898256;28;20083;-87
2021/10/22 14:45:26;;;;;;;18.17;3.20;;;;;;;;;;4914246;29;20031;-85
2021/10/22 14:48:28;;;;;;;13.88;2.60;;;;;;;;;;4933431;28;20035;-85
2021/10/22 14:50:48;;;;;;;10.32;2.40;;;;;;;;;;4928342;29;20032;-85
2021/10/22 14:55:53;;;;;;;15.15;2.58;;;;;;;;;;4924040;29;20067;-85
2021/10/22 14:58:21;;;;;;;16.60;2.40;;;;;;;;;;4922763;28;20140;-84
2021/10/22 15:00:48;;;;;;;11.75;2.50;;;;;;;;;;4906477;29;20135;-84
2021/10/22 15:03:15;;;;;;;13.80;3.25;;;;;;;;;;4925884;29;20035;-84
2021/10/22 15:05:43;;;;;;;13.88;2.38;;;;;;;;;;4927782;28;20032;-84
2021/10/22 15:08:14;;;;;;;14.80;2.70;;;;;;;;;;4926385;29;20038;-82
2021/10/22 15:10:45;;;;;;;13.55;2.63;;;;;;;;;;4928044;28;20031;-83
2021/10/22 15:13:12;;;;;;;15.48;2.83;;;;;;;;;;4946621;29;20042;-83
2021/10/22 15:15:40;;;;;;;14.77;3.55;;;;;;;;;;4945541;28;20016;-84
2021/10/22 15:18:07;;;;;;;13.75;3.45;;;;;;;;;;4949672;29;20015;-85
2021/10/22 15:20:36;;;;;;;14.13;4.00;;;;;;;;;;4930949;28;20122;-84
2021/10/22 15:23:04;;;;;;;12.95;3.65;;;;;;;;;;4927676;29;20032;-85
2021/10/22 15:25:34;;;;;;;17.42;4.03;;;;;;;;;;4922928;29;20046;-86
2021/10/22 15:28:01;;;;;;;16.15;3.90;;;;;;;;;;4926685;28;20060;-85
2021/10/22 15:30:28;;;;;;;15.85;3.45;;;;;;;;;;4914070;29;20170;-86
2021/10/22 15:32:56;;;;;;;18.05;3.85;;;;;;;;;;4924934;28;20063;-86
2021/10/22 15:35:23;;;;;;;14.93;3.55;;;;;;;;;;4923945;29;20448;-85
2021/10/22 15:37:51;;;;;;;17.00;3.17;;;;;;;;;;4918993;28;20036;-84
2021/10/22 15:40:18;;;;;;;15.27;3.10;;;;;;;;;;4908092;29;20139;-85
2021/10/22 15:42:45;;;;;;;15.75;3.05;;;;;;;;;;4922212;29;20056;-84
2021/10/22 15:45:12;;;;;;;13.57;2.65;;;;;;;;;;4907102;28;20141;-82
2021/10/22 15:47:40;;;;;;;15.88;2.42;;;;;;;;;;4910715;29;20090;-82